Time;durP1;ratioP1;P1;durP2;ratioP2;P2;SDS_P1;SDS_P2;PMS_P1;PMS_P2;Temp;Humidity;BMP_temperature;BMP_pressure;BME280_temperature;BME280_humidity;BME280_pressure;Samples;Min_cycle;Max_cycle;Signal;HPM_P1;HPM_P2
2022/02/07 00:00:24;;;;;;;12.53;2.10;;;;;;;;;;5032236;28;20209;-71
2022/02/07 00:05:27;;;;;;;13.20;2.47;;;;;;;;;;5032399;28;20239;-71
2022/02/07 00:07:53;;;;;;;8.37;2.23;;;;;;;;;;5028969;28;20575;-70
2022/02/07 00:10:18;;;;;;;9.27;1.90;;;;;;;;;;5032194;28;20214;-71
2022/02/07 00:12:45;;;;;;;13.17;2.33;;;;;;;;;;5029677;28;20325;-71
2022/02/07 00:15:11;;;;;;;10.60;1.97;;;;;;;;;;5032040;28;20655;-71
2022/02/07 00:17:36;;;;;;;7.03;2.10;;;;;;;;;;5030126;28;20174;-71
2022/02/07 00:20:07;;;;;;;9.47;1.50;;;;;;;;;;5030886;28;20198;-72
2022/02/07 00:22:32;;;;;;;7.07;1.87;;;;;;;;;;5032552;28;20252;-71
2022/02/07 00:24:57;;;;;;;9.00;2.10;;;;;;;;;;5030598;28;20174;-71
2022/02/07 00:27:23;;;;;;;14.00;2.23;;;;;;;;;;5031865;28;20178;-71
2022/02/07 00:29:48;;;;;;;7.50;2.07;;;;;;;;;;5032169;28;20668;-71
2022/02/07 00:32:13;;;;;;;9.53;2.00;;;;;;;;;;5032051;28;20186;-71
2022/02/07 00:34:39;;;;;;;11.97;2.27;;;;;;;;;;5030805;28;20573;-70
2022/02/07 00:37:04;;;;;;;13.10;2.73;;;;;;;;;;5027633;28;20190;-71
2022/02/07 00:39:37;;;;;;;8.63;2.43;;;;;;;;;;5027960;28;20714;-70
2022/02/07 00:42:06;;;;;;;6.83;0.90;;;;;;;;;;5028809;28;20275;-71
2022/02/07 00:44:32;;;;;;;3.40;0.50;;;;;;;;;;5015202;28;20321;-71
2022/02/07 00:46:58;;;;;;;1.63;0.40;;;;;;;;;;5003265;28;20182;-70
2022/02/07 00:49:24;;;;;;;2.93;0.90;;;;;;;;;;5024647;28;20202;-70
2022/02/07 00:51:50;;;;;;;6.23;0.73;;;;;;;;;;5030401;28;20228;-71
2022/02/07 00:54:15;;;;;;;3.93;0.87;;;;;;;;;;5030735;28;20233;-71
2022/02/07 00:56:41;;;;;;;6.00;1.77;;;;;;;;;;5031700;28;20182;-71
2022/02/07 00:59:07;;;;;;;8.50;1.27;;;;;;;;;;4999431;28;20183;-71
2022/02/07 01:01:32;;;;;;;6.40;1.13;;;;;;;;;;5009295;28;20190;-70
2022/02/07 01:03:57;;;;;;;6.63;2.17;;;;;;;;;;5020267;28;20252;-71
2022/02/07 01:06:22;;;;;;;5.47;1.30;;;;;;;;;;5021840;28;20186;-71
2022/02/07 01:08:52;;;;;;;6.83;1.20;;;;;;;;;;5003237;28;20202;-71
2022/02/07 01:11:37;;;;;;;13.80;2.13;;;;;;;;;;5042377;22;20308;-69
2022/02/07 01:14:13;;;;;;;9.57;2.97;;;;;;;;;;5029532;28;20228;-68
2022/02/07 01:22:16;;;;;;;16.27;2.00;;;;;;;;;;5031553;28;20667;-69
2022/02/07 01:46:35;;;;;;;6.20;1.33;;;;;;;;;;5028435;28;20198;-70
2022/02/07 01:49:19;;;;;;;7.70;1.67;;;;;;;;;;5028082;28;20186;-68
2022/02/07 01:56:45;;;;;;;9.57;1.93;;;;;;;;;;5030432;28;20208;-69
2022/02/07 01:59:10;;;;;;;21.13;2.93;;;;;;;;;;5030374;28;20202;-68
2022/02/07 02:01:37;;;;;;;12.07;3.20;;;;;;;;;;5012424;28;20274;-69
2022/02/07 02:04:03;;;;;;;11.80;2.17;;;;;;;;;;5029772;28;20687;-68
2022/02/07 02:06:28;;;;;;;13.70;2.37;;;;;;;;;;5021602;28;20242;-69
2022/02/07 02:08:54;;;;;;;13.93;2.03;;;;;;;;;;5017987;28;20198;-68
2022/02/07 02:11:19;;;;;;;11.80;2.30;;;;;;;;;;5025971;28;20691;-68
2022/02/07 02:16:37;;;;;;;9.23;2.43;;;;;;;;;;5029851;28;20193;-69
2022/02/07 02:19:41;;;;;;;10.97;2.23;;;;;;;;;;5015882;28;20720;-69
2022/02/07 02:33:28;;;;;;;17.03;2.33;;;;;;;;;;5034356;28;20255;-69
2022/02/07 02:38:27;;;;;;;13.93;2.37;;;;;;;;;;5033581;28;20188;-69
2022/02/07 02:46:28;;;;;;;8.93;1.97;;;;;;;;;;5032825;28;20339;-69
2022/02/07 02:49:00;;;;;;;9.00;2.30;;;;;;;;;;5033803;28;20182;-69
2022/02/07 02:51:25;;;;;;;20.40;3.13;;;;;;;;;;5030534;28;20214;-68
2022/02/07 02:53:51;;;;;;;9.50;2.87;;;;;;;;;;5031870;28;20201;-69
2022/02/07 02:56:16;;;;;;;14.70;2.43;;;;;;;;;;5032442;28;20193;-68
2022/02/07 02:58:41;;;;;;;15.70;2.93;;;;;;;;;;5031324;28;20174;-69
2022/02/07 03:01:06;;;;;;;12.27;3.90;;;;;;;;;;5028002;28;20688;-67
2022/02/07 03:03:31;;;;;;;14.70;2.60;;;;;;;;;;5031585;28;20175;-68
2022/02/07 03:05:57;;;;;;;20.83;3.20;;;;;;;;;;5030574;28;20643;-68
2022/02/07 03:08:22;;;;;;;13.30;3.00;;;;;;;;;;5031189;28;20190;-68
2022/02/07 03:10:59;;;;;;;16.83;2.83;;;;;;;;;;5030974;28;20299;-68
2022/02/07 03:18:34;;;;;;;13.57;2.50;;;;;;;;;;5031393;28;20587;-68
2022/02/07 03:20:59;;;;;;;11.67;2.10;;;;;;;;;;5031694;28;20198;-68
2022/02/07 03:23:24;;;;;;;9.50;2.27;;;;;;;;;;5026245;28;20205;-68
2022/02/07 03:25:50;;;;;;;9.90;2.73;;;;;;;;;;5017265;28;20258;-68
2022/02/07 03:28:15;;;;;;;11.07;1.70;;;;;;;;;;5019354;28;20240;-69
2022/02/07 03:30:41;;;;;;;13.43;2.80;;;;;;;;;;5019906;28;20694;-69
2022/02/07 03:33:06;;;;;;;9.80;3.13;;;;;;;;;;5031311;28;20209;-69
2022/02/07 03:35:32;;;;;;;12.60;3.20;;;;;;;;;;5030174;28;20185;-68
2022/02/07 03:37:57;;;;;;;14.03;2.70;;;;;;;;;;5030316;28;20247;-69
2022/02/07 03:40:22;;;;;;;13.37;2.93;;;;;;;;;;5030513;28;20205;-69
2022/02/07 03:42:47;;;;;;;13.13;2.70;;;;;;;;;;5029875;28;20551;-68
2022/02/07 03:45:13;;;;;;;13.10;2.57;;;;;;;;;;5031075;28;20191;-69
2022/02/07 03:47:38;;;;;;;10.03;2.43;;;;;;;;;;5029371;28;20174;-68
2022/02/07 03:50:04;;;;;;;11.37;2.87;;;;;;;;;;5031088;28;20237;-68
2022/02/07 03:52:29;;;;;;;21.07;3.93;;;;;;;;;;5031132;28;20585;-69
2022/02/07 03:54:54;;;;;;;17.00;2.80;;;;;;;;;;5030362;28;20188;-69
2022/02/07 03:57:20;;;;;;;17.90;3.67;;;;;;;;;;5030205;28;20183;-68
2022/02/07 03:59:45;;;;;;;16.63;3.97;;;;;;;;;;5027845;28;20365;-69
2022/02/07 04:02:10;;;;;;;15.77;5.50;;;;;;;;;;5040493;28;22001;-68
2022/02/07 04:04:36;;;;;;;15.73;3.47;;;;;;;;;;5045612;28;20186;-69
2022/02/07 04:07:03;;;;;;;13.33;3.30;;;;;;;;;;5014683;28;20195;-69
2022/02/07 04:09:34;;;;;;;11.10;2.80;;;;;;;;;;5027256;28;20182;-69
2022/02/07 04:12:13;;;;;;;16.27;3.03;;;;;;;;;;5030545;28;20258;-69
2022/02/07 04:14:39;;;;;;;19.73;2.53;;;;;;;;;;5029631;28;20670;-69
2022/02/07 04:17:07;;;;;;;10.00;2.37;;;;;;;;;;5030813;28;20261;-69
2022/02/07 04:19:34;;;;;;;16.30;3.57;;;;;;;;;;5029359;28;20178;-69
2022/02/07 04:22:01;;;;;;;16.27;3.23;;;;;;;;;;5008671;28;20600;-68
2022/02/07 04:24:26;;;;;;;13.47;3.17;;;;;;;;;;5022745;28;20194;-69
2022/02/07 04:26:51;;;;;;;18.77;4.33;;;;;;;;;;5036323;28;20247;-68
2022/02/07 04:29:16;;;;;;;18.03;3.33;;;;;;;;;;5030387;28;20690;-69
2022/02/07 04:31:42;;;;;;;13.53;3.07;;;;;;;;;;5023891;28;20491;-69
2022/02/07 04:34:07;;;;;;;21.37;3.27;;;;;;;;;;5022542;28;20190;-68
2022/02/07 04:36:32;;;;;;;22.57;2.93;;;;;;;;;;5027719;28;20642;-69
2022/02/07 04:38:57;;;;;;;21.93;3.17;;;;;;;;;;5027747;28;20177;-68
2022/02/07 04:41:24;;;;;;;19.10;4.50;;;;;;;;;;5030310;28;21479;-69
2022/02/07 04:43:54;;;;;;;16.03;3.93;;;;;;;;;;5012392;28;20938;-68
2022/02/07 04:55:32;;;;;;;20.57;2.67;;;;;;;;;;5027556;28;20702;-70
2022/02/07 05:15:38;;;;;;;16.70;2.90;;;;;;;;;;5029797;28;20309;-69
2022/02/07 05:18:03;;;;;;;13.43;2.77;;;;;;;;;;5029706;28;20265;-68
2022/02/07 05:20:29;;;;;;;16.70;3.50;;;;;;;;;;5027074;28;20739;-69
2022/02/07 05:22:54;;;;;;;12.73;3.33;;;;;;;;;;5029794;28;20296;-68
2022/02/07 05:25:19;;;;;;;10.50;2.70;;;;;;;;;;5010790;28;20531;-69
2022/02/07 05:27:44;;;;;;;13.50;3.00;;;;;;;;;;5028832;28;20238;-68
2022/02/07 05:30:09;;;;;;;19.43;3.03;;;;;;;;;;5011341;28;21861;-69
2022/02/07 05:32:35;;;;;;;16.23;3.07;;;;;;;;;;5009506;28;20185;-69
2022/02/07 05:35:00;;;;;;;10.10;2.40;;;;;;;;;;5016151;28;20176;-70
2022/02/07 05:37:25;;;;;;;15.03;3.57;;;;;;;;;;5023833;28;20174;-69
2022/02/07 05:39:56;;;;;;;10.70;2.83;;;;;;;;;;5026306;28;20210;-68
2022/02/07 05:42:21;;;;;;;12.87;2.60;;;;;;;;;;5029250;28;20672;-69
2022/02/07 05:44:47;;;;;;;9.83;2.87;;;;;;;;;;5027972;28;20211;-68
2022/02/07 05:47:13;;;;;;;17.90;3.60;;;;;;;;;;5028359;28;20298;-68
2022/02/07 05:49:38;;;;;;;14.50;3.00;;;;;;;;;;5028916;28;20340;-70
2022/02/07 05:52:04;;;;;;;11.50;2.50;;;;;;;;;;5028021;28;20190;-68
2022/02/07 05:54:29;;;;;;;14.40;2.60;;;;;;;;;;5025722;28;20638;-69
2022/02/07 05:56:54;;;;;;;14.90;2.83;;;;;;;;;;5028893;28;20171;-68
2022/02/07 05:59:19;;;;;;;22.17;3.73;;;;;;;;;;5028371;28;20684;-69
2022/02/07 06:01:44;;;;;;;15.90;3.47;;;;;;;;;;5027550;28;20189;-68
2022/02/07 06:04:10;;;;;;;13.30;2.87;;;;;;;;;;5029045;28;20186;-68
2022/02/07 06:06:35;;;;;;;12.53;2.23;;;;;;;;;;5029051;28;20522;-68
2022/02/07 06:09:00;;;;;;;22.10;3.33;;;;;;;;;;5028307;28;20192;-68
2022/02/07 06:11:25;;;;;;;17.20;4.90;;;;;;;;;;5024956;28;20252;-68
2022/02/07 06:13:50;;;;;;;15.63;2.93;;;;;;;;;;5028784;28;20267;-68
2022/02/07 06:16:17;;;;;;;9.67;2.90;;;;;;;;;;5009994;28;20555;-68
2022/02/07 06:18:43;;;;;;;19.50;3.87;;;;;;;;;;5028208;28;20182;-69
2022/02/07 06:21:12;;;;;;;11.33;3.17;;;;;;;;;;5028774;28;20249;-69
2022/02/07 06:23:37;;;;;;;13.33;2.50;;;;;;;;;;5025524;28;20186;-69
2022/02/07 06:26:03;;;;;;;14.60;2.27;;;;;;;;;;5027075;28;20182;-69
2022/02/07 06:28:28;;;;;;;17.07;3.87;;;;;;;;;;5028710;28;20269;-69
2022/02/07 06:30:53;;;;;;;12.90;3.63;;;;;;;;;;5010289;28;20716;-68
2022/02/07 06:33:18;;;;;;;15.50;2.40;;;;;;;;;;5027120;28;20289;-68
2022/02/07 06:35:44;;;;;;;12.40;3.13;;;;;;;;;;5028538;28;20566;-69
2022/02/07 06:38:09;;;;;;;16.97;3.23;;;;;;;;;;5014873;28;20190;-69
2022/02/07 06:40:34;;;;;;;18.53;3.00;;;;;;;;;;5023858;28;20247;-69
2022/02/07 06:42:59;;;;;;;15.63;3.00;;;;;;;;;;5027670;28;20198;-69
2022/02/07 06:45:24;;;;;;;18.37;3.30;;;;;;;;;;5027625;28;20269;-69
2022/02/07 06:47:49;;;;;;;22.00;4.07;;;;;;;;;;5009092;28;20190;-68
2022/02/07 06:50:15;;;;;;;11.97;2.73;;;;;;;;;;5028320;28;20237;-68
2022/02/07 06:52:40;;;;;;;15.30;2.80;;;;;;;;;;5025976;28;20239;-69
2022/02/07 06:55:05;;;;;;;14.97;3.23;;;;;;;;;;5026512;28;20194;-68
2022/02/07 06:57:30;;;;;;;23.77;3.23;;;;;;;;;;5027572;28;20178;-68
2022/02/07 06:59:56;;;;;;;19.20;3.70;;;;;;;;;;5011524;28;20209;-68
2022/02/07 07:02:26;;;;;;;24.13;5.10;;;;;;;;;;5028391;28;20175;-68
2022/02/07 07:04:51;;;;;;;17.50;3.97;;;;;;;;;;5027611;28;20565;-68
2022/02/07 07:07:18;;;;;;;16.83;3.37;;;;;;;;;;5031708;28;20175;-68
2022/02/07 07:09:45;;;;;;;15.83;3.03;;;;;;;;;;5045216;22;20241;-70
2022/02/07 07:12:11;;;;;;;21.80;4.03;;;;;;;;;;5040186;28;20284;-70
2022/02/07 07:14:48;;;;;;;16.90;3.60;;;;;;;;;;5016712;28;20293;-70
2022/02/07 07:17:14;;;;;;;20.97;4.07;;;;;;;;;;5039139;28;20192;-70
2022/02/07 07:19:39;;;;;;;12.90;3.57;;;;;;;;;;5033137;28;20178;-70
2022/02/07 07:22:05;;;;;;;15.63;3.33;;;;;;;;;;5027337;28;20179;-71
2022/02/07 07:24:30;;;;;;;16.90;3.07;;;;;;;;;;5032758;28;20558;-71
2022/02/07 07:26:56;;;;;;;16.17;3.23;;;;;;;;;;5030151;28;20190;-71
2022/02/07 07:29:26;;;;;;;13.83;2.93;;;;;;;;;;5031909;28;20179;-71
2022/02/07 07:31:57;;;;;;;19.57;3.77;;;;;;;;;;5031597;28;20210;-70
2022/02/07 07:34:23;;;;;;;16.10;3.70;;;;;;;;;;5032522;28;20202;-70
2022/02/07 07:36:48;;;;;;;17.37;2.77;;;;;;;;;;5014094;28;20269;-70
2022/02/07 07:39:14;;;;;;;15.70;3.43;;;;;;;;;;5026356;28;20735;-70
2022/02/07 07:41:41;;;;;;;14.40;3.20;;;;;;;;;;5009949;28;20206;-70
2022/02/07 07:44:06;;;;;;;11.83;3.40;;;;;;;;;;5026520;28;20214;-70
2022/02/07 07:46:32;;;;;;;18.30;3.83;;;;;;;;;;5032386;28;20224;-70
2022/02/07 07:49:02;;;;;;;15.87;3.83;;;;;;;;;;5030097;28;20240;-71
2022/02/07 07:52:06;;;;;;;15.30;3.30;;;;;;;;;;5032153;28;20209;-70
2022/02/07 07:54:43;;;;;;;21.30;5.03;;;;;;;;;;5029726;28;20240;-70
2022/02/07 08:02:39;;;;;;;16.23;2.93;;;;;;;;;;5031042;28;20316;-71
2022/02/07 08:05:15;;;;;;;15.93;3.60;;;;;;;;;;5030015;28;20265;-71
2022/02/07 08:07:42;;;;;;;25.33;3.50;;;;;;;;;;5006929;28;20643;-70
2022/02/07 08:10:27;;;;;;;23.50;3.53;;;;;;;;;;5022810;28;20701;-70
2022/02/07 08:12:52;;;;;;;12.27;3.07;;;;;;;;;;5027294;28;20190;-71
2022/02/07 08:15:18;;;;;;;19.37;3.27;;;;;;;;;;5033910;28;20206;-70
2022/02/07 08:17:44;;;;;;;15.30;3.23;;;;;;;;;;5021468;28;20265;-70
2022/02/07 08:20:09;;;;;;;21.93;3.60;;;;;;;;;;5038085;28;20305;-71
2022/02/07 08:22:35;;;;;;;14.33;2.87;;;;;;;;;;5017012;28;20169;-70
2022/02/07 08:25:00;;;;;;;12.87;3.17;;;;;;;;;;5042694;28;20186;-70
2022/02/07 08:27:26;;;;;;;13.43;3.40;;;;;;;;;;5032763;28;20178;-71
2022/02/07 08:29:52;;;;;;;19.57;3.67;;;;;;;;;;5038469;28;20237;-70
2022/02/07 08:32:18;;;;;;;19.03;4.00;;;;;;;;;;5034597;28;20174;-71
2022/02/07 08:34:43;;;;;;;22.67;4.63;;;;;;;;;;5041170;28;20212;-71
2022/02/07 08:37:08;;;;;;;12.63;3.87;;;;;;;;;;5035873;28;20179;-70
2022/02/07 08:39:34;;;;;;;13.00;2.97;;;;;;;;;;5035860;28;20171;-71
2022/02/07 08:41:59;;;;;;;13.57;3.40;;;;;;;;;;5027901;28;20640;-70
2022/02/07 08:44:26;;;;;;;20.80;3.60;;;;;;;;;;5024586;28;20182;-70
2022/02/07 08:46:52;;;;;;;13.13;3.43;;;;;;;;;;5026518;28;20557;-71
2022/02/07 08:49:17;;;;;;;12.77;2.80;;;;;;;;;;5021555;28;20278;-71
2022/02/07 08:51:42;;;;;;;15.53;3.90;;;;;;;;;;5030004;28;20277;-70
2022/02/07 08:54:09;;;;;;;24.00;4.13;;;;;;;;;;5031760;28;20672;-70
2022/02/07 08:56:42;;;;;;;18.13;3.27;;;;;;;;;;5033611;28;20174;-70
2022/02/07 08:59:09;;;;;;;17.50;3.07;;;;;;;;;;5029268;28;20210;-70
2022/02/07 09:01:46;;;;;;;15.80;3.47;;;;;;;;;;5027782;28;20194;-71
2022/02/07 09:07:05;;;;;;;19.83;3.97;;;;;;;;;;5030787;28;20189;-71
2022/02/07 09:09:30;;;;;;;21.03;4.43;;;;;;;;;;5026879;28;20272;-71
2022/02/07 09:11:56;;;;;;;10.67;2.57;;;;;;;;;;5027053;28;20669;-70
2022/02/07 09:14:22;;;;;;;17.17;3.00;;;;;;;;;;5021737;28;20271;-71
2022/02/07 09:16:48;;;;;;;19.60;3.20;;;;;;;;;;5025848;28;20187;-71
2022/02/07 09:19:20;;;;;;;11.10;3.87;;;;;;;;;;5031734;28;20202;-70
2022/02/07 09:21:45;;;;;;;12.97;3.83;;;;;;;;;;5016051;28;20198;-70
2022/02/07 09:24:11;;;;;;;13.03;3.17;;;;;;;;;;5030798;28;20182;-70
2022/02/07 09:26:36;;;;;;;12.80;2.87;;;;;;;;;;5036253;28;20652;-70
2022/02/07 09:29:01;;;;;;;16.53;3.50;;;;;;;;;;5030782;28;20186;-70
2022/02/07 09:31:27;;;;;;;18.40;4.70;;;;;;;;;;5031577;28;20224;-70
2022/02/07 09:33:53;;;;;;;15.33;3.13;;;;;;;;;;5031486;28;20198;-70
2022/02/07 09:36:19;;;;;;;14.37;3.10;;;;;;;;;;5028282;28;20608;-70
2022/02/07 09:38:45;;;;;;;17.20;3.30;;;;;;;;;;5025553;28;21770;-70
2022/02/07 09:41:11;;;;;;;26.53;4.60;;;;;;;;;;5034308;28;20201;-70
2022/02/07 09:43:43;;;;;;;25.50;4.77;;;;;;;;;;5025259;28;20195;-69
2022/02/07 09:46:18;;;;;;;19.67;2.77;;;;;;;;;;5015825;28;20917;-70
2022/02/07 09:48:43;;;;;;;15.70;3.23;;;;;;;;;;5028987;28;20216;-70
2022/02/07 09:51:09;;;;;;;16.53;4.13;;;;;;;;;;5039943;28;20698;-70
2022/02/07 09:53:35;;;;;;;12.20;3.60;;;;;;;;;;5036648;28;20201;-69
2022/02/07 09:56:04;;;;;;;14.23;2.60;;;;;;;;;;5029278;28;20261;-71
2022/02/07 09:58:34;;;;;;;11.37;2.77;;;;;;;;;;5030722;28;20260;-68
2022/02/07 10:01:02;;;;;;;18.17;3.60;;;;;;;;;;5038229;28;20194;-69
2022/02/07 10:03:35;;;;;;;10.33;2.97;;;;;;;;;;5037382;28;20609;-69
2022/02/07 10:06:14;;;;;;;18.27;4.30;;;;;;;;;;5033097;28;20181;-70
2022/02/07 10:08:57;;;;;;;13.73;3.17;;;;;;;;;;5036883;28;20393;-70
2022/02/07 10:11:42;;;;;;;21.33;2.90;;;;;;;;;;5012754;28;20206;-69
2022/02/07 10:14:16;;;;;;;18.27;3.33;;;;;;;;;;5027270;28;20213;-70
2022/02/07 10:16:54;;;;;;;13.43;2.40;;;;;;;;;;5034753;28;20174;-70
2022/02/07 10:36:10;;;;;;;15.13;2.60;;;;;;;;;;5039690;28;20181;-70
2022/02/07 10:38:44;;;;;;;18.60;2.83;;;;;;;;;;5036490;28;20191;-70
2022/02/07 10:41:25;;;;;;;12.40;2.77;;;;;;;;;;5031758;28;20293;-70
2022/02/07 10:44:02;;;;;;;13.20;2.40;;;;;;;;;;5014157;28;20193;-70
2022/02/07 10:46:33;;;;;;;14.00;3.47;;;;;;;;;;5041686;28;20643;-70
2022/02/07 10:48:58;;;;;;;16.63;3.30;;;;;;;;;;5032005;28;20244;-69
2022/02/07 10:51:33;;;;;;;15.13;3.43;;;;;;;;;;5034578;28;20198;-70
2022/02/07 10:53:58;;;;;;;11.70;2.27;;;;;;;;;;5039291;28;20216;-70
2022/02/07 10:56:39;;;;;;;10.23;2.77;;;;;;;;;;5042161;28;20178;-71
2022/02/07 10:59:07;;;;;;;18.43;3.40;;;;;;;;;;5042685;28;20655;-70
2022/02/07 11:04:05;;;;;;;11.53;2.77;;;;;;;;;;5034120;28;20239;-70
2022/02/07 11:06:35;;;;;;;14.67;3.53;;;;;;;;;;5035553;28;20174;-70
2022/02/07 11:11:45;;;;;;;13.37;2.60;;;;;;;;;;5030687;28;20225;-69
2022/02/07 11:22:57;;;;;;;13.87;1.87;;;;;;;;;;5041054;28;20698;-70
2022/02/07 11:25:10;;;;;;;7.00;2.00;;;;;;;;;;5024563;28;20192;-70
2022/02/07 11:27:41;;;;;;;8.87;1.87;;;;;;;;;;5043217;28;20216;-69
2022/02/07 11:30:11;;;;;;;11.53;2.70;;;;;;;;;;5029982;28;20664;-70
2022/02/07 11:32:39;;;;;;;9.93;2.13;;;;;;;;;;5040146;28;20677;-70
2022/02/07 11:35:06;;;;;;;10.83;2.33;;;;;;;;;;5013764;28;20245;-70
2022/02/07 11:37:31;;;;;;;16.53;3.53;;;;;;;;;;5026789;28;20170;-70
2022/02/07 11:39:57;;;;;;;9.30;1.90;;;;;;;;;;5032563;28;20206;-69
2022/02/07 11:42:22;;;;;;;21.67;2.47;;;;;;;;;;5039222;28;20214;-70
2022/02/07 11:44:53;;;;;;;8.97;2.83;;;;;;;;;;5046543;28;20234;-70
2022/02/07 11:47:23;;;;;;;12.63;2.17;;;;;;;;;;5033116;28;20584;-70
2022/02/07 11:49:53;;;;;;;10.00;1.87;;;;;;;;;;5012306;28;20178;-70
2022/02/07 11:52:32;;;;;;;10.77;2.17;;;;;;;;;;5029806;28;20190;-68
2022/02/07 11:54:58;;;;;;;8.57;1.97;;;;;;;;;;5042913;28;20212;-70
2022/02/07 11:57:30;;;;;;;11.73;2.10;;;;;;;;;;5031064;28;20202;-69
2022/02/07 11:59:59;;;;;;;12.27;3.43;;;;;;;;;;5031185;28;20225;-70
2022/02/07 12:02:34;;;;;;;8.73;2.53;;;;;;;;;;5043866;28;20174;-69
2022/02/07 12:04:59;;;;;;;8.70;2.23;;;;;;;;;;5044826;28;20644;-70
2022/02/07 12:07:35;;;;;;;7.50;2.27;;;;;;;;;;5032702;28;20213;-70
2022/02/07 12:10:06;;;;;;;10.47;2.07;;;;;;;;;;5030929;28;20213;-69
2022/02/07 12:12:37;;;;;;;14.87;2.27;;;;;;;;;;5030361;28;20182;-69
2022/02/07 12:15:12;;;;;;;12.13;1.87;;;;;;;;;;5042499;28;20300;-70
2022/02/07 12:17:44;;;;;;;7.90;2.10;;;;;;;;;;5037086;28;20252;-70
2022/02/07 12:20:11;;;;;;;15.30;3.43;;;;;;;;;;5021479;28;20208;-71
2022/02/07 12:22:51;;;;;;;12.50;4.17;;;;;;;;;;5040640;28;20262;-69
2022/02/07 12:25:22;;;;;;;11.60;2.67;;;;;;;;;;5029776;28;20641;-68
2022/02/07 12:27:48;;;;;;;6.83;2.37;;;;;;;;;;5038173;28;20798;-71
2022/02/07 12:32:40;;;;;;;23.30;3.70;;;;;;;;;;5029347;28;20557;-70
2022/02/07 12:35:06;;;;;;;13.03;2.70;;;;;;;;;;5033498;28;20209;-71
2022/02/07 12:37:37;;;;;;;10.03;2.77;;;;;;;;;;5018865;28;20173;-70
2022/02/07 12:40:04;;;;;;;14.53;2.53;;;;;;;;;;5021789;28;20289;-71
2022/02/07 12:42:30;;;;;;;10.47;3.60;;;;;;;;;;5032967;28;20698;-71
2022/02/07 12:44:58;;;;;;;10.90;2.10;;;;;;;;;;5030064;28;20179;-70
2022/02/07 12:47:24;;;;;;;10.47;2.63;;;;;;;;;;5025944;28;20655;-71
2022/02/07 12:49:51;;;;;;;12.37;2.13;;;;;;;;;;5030351;28;20209;-71
2022/02/07 12:52:16;;;;;;;10.40;1.87;;;;;;;;;;5021879;28;20177;-71
2022/02/07 12:54:41;;;;;;;11.53;2.43;;;;;;;;;;5030481;28;20194;-71
2022/02/07 12:57:06;;;;;;;11.40;1.93;;;;;;;;;;5036900;28;20224;-71
2022/02/07 12:59:32;;;;;;;11.03;2.00;;;;;;;;;;5017504;28;20660;-70
2022/02/07 13:01:58;;;;;;;11.40;2.23;;;;;;;;;;5022318;28;20184;-71
2022/02/07 13:04:23;;;;;;;7.23;2.33;;;;;;;;;;5033408;28;20220;-70
2022/02/07 13:06:49;;;;;;;13.73;1.93;;;;;;;;;;5036862;28;20201;-70
2022/02/07 13:09:18;;;;;;;11.60;2.70;;;;;;;;;;5031486;28;20178;-70
2022/02/07 13:11:49;;;;;;;6.63;1.80;;;;;;;;;;5034645;28;20295;-71
2022/02/07 13:14:15;;;;;;;8.87;2.57;;;;;;;;;;5031706;28;20336;-71
2022/02/07 13:16:41;;;;;;;7.50;1.90;;;;;;;;;;5031966;28;20342;-70
2022/02/07 13:19:07;;;;;;;6.40;1.97;;;;;;;;;;5032091;28;20201;-70
2022/02/07 13:21:39;;;;;;;9.40;2.77;;;;;;;;;;5031623;28;20205;-70
2022/02/07 13:24:11;;;;;;;9.00;1.47;;;;;;;;;;5013929;28;20193;-70
2022/02/07 13:26:38;;;;;;;6.23;2.10;;;;;;;;;;5035342;28;20185;-70
2022/02/07 13:29:03;;;;;;;8.30;1.20;;;;;;;;;;5031905;28;20236;-70
2022/02/07 13:31:28;;;;;;;7.97;1.70;;;;;;;;;;5031885;28;20399;-71
2022/02/07 13:33:54;;;;;;;9.80;1.80;;;;;;;;;;5030977;28;20698;-70
2022/02/07 13:36:37;;;;;;;6.40;2.67;;;;;;;;;;5027453;28;20667;-71
2022/02/07 13:39:03;;;;;;;6.30;1.53;;;;;;;;;;5023240;28;20269;-71
2022/02/07 13:41:28;;;;;;;7.57;1.50;;;;;;;;;;5030447;28;20628;-70
2022/02/07 13:43:54;;;;;;;5.73;2.03;;;;;;;;;;5027650;28;20209;-71
2022/02/07 13:46:19;;;;;;;11.07;2.60;;;;;;;;;;5032888;28;20695;-70
2022/02/07 13:48:45;;;;;;;7.67;1.50;;;;;;;;;;5028442;28;20182;-71
2022/02/07 13:51:10;;;;;;;6.97;1.80;;;;;;;;;;5039594;28;20255;-71
2022/02/07 13:53:38;;;;;;;9.33;2.43;;;;;;;;;;5008869;28;20225;-70
2022/02/07 13:56:03;;;;;;;6.13;1.53;;;;;;;;;;5022469;28;20231;-71
2022/02/07 13:58:38;;;;;;;5.67;1.47;;;;;;;;;;5027741;28;20174;-71
2022/02/07 14:01:05;;;;;;;8.83;2.47;;;;;;;;;;5028080;28;20811;-71
2022/02/07 14:03:36;;;;;;;7.27;2.90;;;;;;;;;;5037135;28;20185;-70
2022/02/07 14:06:14;;;;;;;8.30;2.27;;;;;;;;;;5031211;28;20699;-70
2022/02/07 14:08:52;;;;;;;9.57;1.63;;;;;;;;;;5024878;28;20204;-70
2022/02/07 14:11:20;;;;;;;6.13;1.27;;;;;;;;;;5023237;28;20240;-70
2022/02/07 14:13:46;;;;;;;5.80;2.27;;;;;;;;;;5025773;28;20222;-70
2022/02/07 14:16:11;;;;;;;7.23;1.50;;;;;;;;;;5027992;28;20694;-70
2022/02/07 14:18:38;;;;;;;6.40;1.60;;;;;;;;;;5031418;28;20231;-70
2022/02/07 14:21:08;;;;;;;6.97;1.47;;;;;;;;;;5015130;28;20202;-70
2022/02/07 14:23:34;;;;;;;6.87;1.60;;;;;;;;;;5026994;28;20184;-70
2022/02/07 14:26:00;;;;;;;9.40;2.50;;;;;;;;;;5026318;28;20182;-71
2022/02/07 14:28:26;;;;;;;6.73;2.00;;;;;;;;;;5030761;28;20170;-70
2022/02/07 14:30:51;;;;;;;10.67;1.70;;;;;;;;;;5029153;28;20730;-71
2022/02/07 14:33:17;;;;;;;7.00;1.70;;;;;;;;;;5033378;28;20285;-70
2022/02/07 14:35:42;;;;;;;5.33;1.83;;;;;;;;;;5026160;28;20265;-70
2022/02/07 14:38:07;;;;;;;7.10;1.37;;;;;;;;;;5031219;28;20170;-71
2022/02/07 14:40:33;;;;;;;6.23;1.93;;;;;;;;;;5029161;28;20230;-71
2022/02/07 14:43:01;;;;;;;6.33;1.23;;;;;;;;;;5031346;28;20454;-71
2022/02/07 14:45:31;;;;;;;7.07;1.77;;;;;;;;;;5038799;28;20189;-71
2022/02/07 14:48:01;;;;;;;10.00;2.33;;;;;;;;;;5026191;28;20178;-69
2022/02/07 14:50:26;;;;;;;3.73;1.17;;;;;;;;;;5032219;28;20714;-70
2022/02/07 14:52:52;;;;;;;6.30;1.30;;;;;;;;;;5033532;28;20265;-70
2022/02/07 14:55:17;;;;;;;5.70;1.30;;;;;;;;;;5023221;28;20175;-70
2022/02/07 14:57:43;;;;;;;7.33;1.60;;;;;;;;;;5026979;28;20201;-70
2022/02/07 15:00:14;;;;;;;4.70;1.23;;;;;;;;;;5006803;28;20198;-70
2022/02/07 15:02:39;;;;;;;5.60;1.30;;;;;;;;;;5016179;28;20186;-69
2022/02/07 15:05:04;;;;;;;9.67;2.07;;;;;;;;;;5025720;28;20175;-70
2022/02/07 15:07:29;;;;;;;5.57;1.43;;;;;;;;;;5026877;28;20189;-70
2022/02/07 15:09:55;;;;;;;7.17;1.50;;;;;;;;;;5024617;28;20202;-70
2022/02/07 15:12:20;;;;;;;5.50;1.50;;;;;;;;;;5035003;28;20683;-71
2022/02/07 15:14:49;;;;;;;9.73;2.17;;;;;;;;;;5042198;28;20288;-70
2022/02/07 15:17:15;;;;;;;7.10;1.50;;;;;;;;;;5031617;28;20185;-70
2022/02/07 15:19:41;;;;;;;6.67;1.63;;;;;;;;;;5029207;28;20206;-70
2022/02/07 15:22:08;;;;;;;7.33;1.70;;;;;;;;;;5036558;28;20169;-70
2022/02/07 15:24:33;;;;;;;6.70;1.53;;;;;;;;;;5040104;28;20184;-70
2022/02/07 15:26:58;;;;;;;4.67;1.30;;;;;;;;;;5034785;28;20174;-70
2022/02/07 15:29:24;;;;;;;5.87;1.97;;;;;;;;;;5032134;28;20645;-70
2022/02/07 15:31:58;;;;;;;4.80;1.53;;;;;;;;;;5037592;28;20633;-70
2022/02/07 15:34:23;;;;;;;8.63;2.20;;;;;;;;;;5036245;28;20324;-70
2022/02/07 15:36:49;;;;;;;5.87;1.30;;;;;;;;;;5033330;28;20739;-70
2022/02/07 15:39:14;;;;;;;8.17;1.77;;;;;;;;;;5040721;28;20185;-70
2022/02/07 15:41:42;;;;;;;8.07;2.10;;;;;;;;;;5034859;28;20738;-70
2022/02/07 15:44:08;;;;;;;5.33;1.27;;;;;;;;;;5039768;28;20182;-70
2022/02/07 15:46:34;;;;;;;7.67;1.90;;;;;;;;;;5036693;28;20174;-70
2022/02/07 15:48:59;;;;;;;5.00;1.70;;;;;;;;;;5029422;28;20186;-71
2022/02/07 15:51:25;;;;;;;4.90;1.43;;;;;;;;;;5029422;28;20194;-70
2022/02/07 15:53:52;;;;;;;6.73;1.60;;;;;;;;;;5030436;28;20755;-70
2022/02/07 15:56:17;;;;;;;4.37;1.23;;;;;;;;;;5028604;28;20174;-70
2022/02/07 15:58:42;;;;;;;11.57;1.73;;;;;;;;;;5009240;28;20185;-69
2022/02/07 16:01:07;;;;;;;7.00;2.00;;;;;;;;;;5028000;28;20687;-69
2022/02/07 16:03:32;;;;;;;10.30;1.33;;;;;;;;;;5034458;28;20177;-69
2022/02/07 16:05:59;;;;;;;2.50;1.00;;;;;;;;;;5033368;28;20171;-69
2022/02/07 16:08:25;;;;;;;7.00;1.43;;;;;;;;;;5035911;28;20370;-69
2022/02/07 16:10:50;;;;;;;6.53;1.47;;;;;;;;;;5041814;28;20240;-69
2022/02/07 16:15:40;;;;;;;3.67;1.83;;;;;;;;;;5034865;28;20542;-70
2022/02/07 16:18:06;;;;;;;4.10;1.30;;;;;;;;;;5029109;28;20182;-70
2022/02/07 16:20:31;;;;;;;4.77;1.17;;;;;;;;;;5043856;28;20613;-70
2022/02/07 16:22:56;;;;;;;7.20;1.30;;;;;;;;;;5029550;28;20182;-70
2022/02/07 16:25:21;;;;;;;6.87;2.40;;;;;;;;;;5037609;28;20205;-71
2022/02/07 16:27:47;;;;;;;5.40;1.30;;;;;;;;;;5029695;28;20535;-69
2022/02/07 16:30:12;;;;;;;5.87;1.60;;;;;;;;;;5041507;28;20228;-72
2022/02/07 16:32:37;;;;;;;4.80;1.20;;;;;;;;;;5027865;28;20532;-70
2022/02/07 16:35:02;;;;;;;5.20;1.00;;;;;;;;;;5032419;28;20210;-71
2022/02/07 16:37:28;;;;;;;5.43;1.20;;;;;;;;;;5039275;28;20657;-72
2022/02/07 16:39:53;;;;;;;6.37;2.27;;;;;;;;;;5031047;28;20310;-71
2022/02/07 16:42:18;;;;;;;5.53;1.63;;;;;;;;;;5030884;28;20233;-69
2022/02/07 16:45:01;;;;;;;4.67;1.37;;;;;;;;;;5021826;28;20194;-69
2022/02/07 16:47:27;;;;;;;6.93;2.03;;;;;;;;;;5027716;28;20663;-69
2022/02/07 16:49:52;;;;;;;6.23;1.57;;;;;;;;;;5035529;28;20216;-69